sensor_id;sensor_type;location;lat;lon;timestamp;temperature;humidity
5136;DHT22;2586;48.710;9.202;2023-02-18T00:01:41;11.20;99.90
5136;DHT22;2586;48.710;9.202;2023-02-18T00:04:07;11.10;99.90
5136;DHT22;2586;48.710;9.202;2023-02-18T00:06:35;11.10;1.00
5136;DHT22;2586;48.710;9.202;2023-02-18T00:09:01;11.10;1.00
5136;DHT22;2586;48.710;9.202;2023-02-18T00:11:30;11.00;1.00
5136;DHT22;2586;48.710;9.202;2023-02-18T00:13:58;11.10;1.00
5136;DHT22;2586;48.710;9.202;2023-02-18T00:16:25;11.10;1.00
5136;DHT22;2586;48.710;9.202;2023-02-18T00:18:56;11.00;1.00
5136;DHT22;2586;48.710;9.202;2023-02-18T00:21:22;11.00;1.00
5136;DHT22;2586;48.710;9.202;2023-02-18T00:23:47;11.10;1.00
5136;DHT22;2586;48.710;9.202;2023-02-18T00:26:16;11.10;1.00
5136;DHT22;2586;48.710;9.202;2023-02-18T00:28:42;11.10;1.00
5136;DHT22;2586;48.710;9.202;2023-02-18T00:31:10;11.10;99.90
5136;DHT22;2586;48.710;9.202;2023-02-18T00:33:36;11.10;99.90
5136;DHT22;2586;48.710;9.202;2023-02-18T00:36:05;11.00;1.00
5136;DHT22;2586;48.710;9.202;2023-02-18T00:38:31;11.00;99.90
5136;DHT22;2586;48.710;9.202;2023-02-18T00:40:58;11.00;99.90
5136;DHT22;2586;48.710;9.202;2023-02-18T00:43:24;11.00;99.90
5136;DHT22;2586;48.710;9.202;2023-02-18T00:45:50;11.00;99.90
5136;DHT22;2586;48.710;9.202;2023-02-18T00:48:15;11.00;99.90
5136;DHT22;2586;48.710;9.202;2023-02-18T00:50:41;11.00;99.90
5136;DHT22;2586;48.710;9.202;2023-02-18T00:53:06;11.00;99.90
5136;DHT22;2586;48.710;9.202;2023-02-18T00:55:32;11.00;99.90
5136;DHT22;2586;48.710;9.202;2023-02-18T00:57:58;11.00;99.90
5136;DHT22;2586;48.710;9.202;2023-02-18T01:00:23;11.00;99.90
5136;DHT22;2586;48.710;9.202;2023-02-18T01:02:50;11.10;99.90
5136;DHT22;2586;48.710;9.202;2023-02-18T01:05:18;11.10;99.90
5136;DHT22;2586;48.710;9.202;2023-02-18T01:07:44;11.10;99.90
5136;DHT22;2586;48.710;9.202;2023-02-18T01:10:10;11.00;99.90
5136;DHT22;2586;48.710;9.202;2023-02-18T01:12:36;11.00;99.90
5136;DHT22;2586;48.710;9.202;2023-02-18T01:15:03;11.00;99.90
5136;DHT22;2586;48.710;9.202;2023-02-18T01:17:29;11.00;99.90
5136;DHT22;2586;48.710;9.202;2023-02-18T01:19:55;11.00;99.90
5136;DHT22;2586;48.710;9.202;2023-02-18T01:22:20;11.00;99.90
5136;DHT22;2586;48.710;9.202;2023-02-18T01:24:46;11.00;99.90
5136;DHT22;2586;48.710;9.202;2023-02-18T01:27:11;11.00;99.90
5136;DHT22;2586;48.710;9.202;2023-02-18T01:29:37;11.00;99.90
5136;DHT22;2586;48.710;9.202;2023-02-18T01:32:03;11.00;99.90
5136;DHT22;2586;48.710;9.202;2023-02-18T01:34:28;11.00;99.90
5136;DHT22;2586;48.710;9.202;2023-02-18T01:36:55;11.00;99.90
5136;DHT22;2586;48.710;9.202;2023-02-18T01:39:20;10.90;99.90
5136;DHT22;2586;48.710;9.202;2023-02-18T01:41:46;10.90;99.90
5136;DHT22;2586;48.710;9.202;2023-02-18T01:44:19;10.90;99.90
5136;DHT22;2586;48.710;9.202;2023-02-18T01:46:45;10.80;99.90
5136;DHT22;2586;48.710;9.202;2023-02-18T01:49:14;10.80;1.00
5136;DHT22;2586;48.710;9.202;2023-02-18T01:51:47;10.70;1.00
5136;DHT22;2586;48.710;9.202;2023-02-18T01:57:05;10.80;99.90
5136;DHT22;2586;48.710;9.202;2023-02-18T01:59:53;10.80;99.90
5136;DHT22;2586;48.710;9.202;2023-02-18T02:02:22;10.80;99.90
5136;DHT22;2586;48.710;9.202;2023-02-18T02:04:49;10.70;99.90
5136;DHT22;2586;48.710;9.202;2023-02-18T02:07:15;10.70;99.90
5136;DHT22;2586;48.710;9.202;2023-02-18T02:09:42;10.80;99.90
5136;DHT22;2586;48.710;9.202;2023-02-18T02:37:15;10.30;99.90
5136;DHT22;2586;48.710;9.202;2023-02-18T02:42:32;10.40;99.90
5136;DHT22;2586;48.710;9.202;2023-02-18T02:45:13;10.40;99.90
5136;DHT22;2586;48.710;9.202;2023-02-18T02:47:50;10.30;99.90
5136;DHT22;2586;48.710;9.202;2023-02-18T02:50:27;10.30;99.90
5136;DHT22;2586;48.710;9.202;2023-02-18T02:52:59;10.20;1.00
5136;DHT22;2586;48.710;9.202;2023-02-18T02:55:26;10.20;1.00
5136;DHT22;2586;48.710;9.202;2023-02-18T02:57:53;10.20;1.00
5136;DHT22;2586;48.710;9.202;2023-02-18T03:03:16;10.10;1.00
5136;DHT22;2586;48.710;9.202;2023-02-18T03:11:08;10.20;99.90
5136;DHT22;2586;48.710;9.202;2023-02-18T03:13:59;10.10;99.90
5136;DHT22;2586;48.710;9.202;2023-02-18T03:16:40;10.10;1.00
5136;DHT22;2586;48.710;9.202;2023-02-18T03:22:10;10.10;1.00
5136;DHT22;2586;48.710;9.202;2023-02-18T03:24:40;10.10;1.00
5136;DHT22;2586;48.710;9.202;2023-02-18T03:27:14;10.10;1.00
5136;DHT22;2586;48.710;9.202;2023-02-18T03:29:42;10.00;1.00
5136;DHT22;2586;48.710;9.202;2023-02-18T03:32:11;10.00;1.00
5136;DHT22;2586;48.710;9.202;2023-02-18T03:34:44;10.00;1.00
5136;DHT22;2586;48.710;9.202;2023-02-18T03:37:11;9.90;1.00
5136;DHT22;2586;48.710;9.202;2023-02-18T03:39:38;9.80;99.90
5136;DHT22;2586;48.710;9.202;2023-02-18T03:42:05;9.80;99.90
5136;DHT22;2586;48.710;9.202;2023-02-18T03:44:31;9.70;99.90
5136;DHT22;2586;48.710;9.202;2023-02-18T03:46:57;9.70;99.90
5136;DHT22;2586;48.710;9.202;2023-02-18T03:49:23;9.60;99.90
5136;DHT22;2586;48.710;9.202;2023-02-18T03:51:48;9.60;1.00
5136;DHT22;2586;48.710;9.202;2023-02-18T03:54:14;9.50;1.00
5136;DHT22;2586;48.710;9.202;2023-02-18T03:56:39;9.50;1.00
5136;DHT22;2586;48.710;9.202;2023-02-18T03:59:05;9.50;1.00
5136;DHT22;2586;48.710;9.202;2023-02-18T04:01:30;9.50;1.00
5136;DHT22;2586;48.710;9.202;2023-02-18T04:03:56;9.50;1.00
5136;DHT22;2586;48.710;9.202;2023-02-18T04:06:23;9.40;1.00
5136;DHT22;2586;48.710;9.202;2023-02-18T04:08:49;9.40;1.00
5136;DHT22;2586;48.710;9.202;2023-02-18T04:11:14;9.50;1.00
5136;DHT22;2586;48.710;9.202;2023-02-18T04:13:40;9.50;1.00
5136;DHT22;2586;48.710;9.202;2023-02-18T04:16:06;9.40;1.00
5136;DHT22;2586;48.710;9.202;2023-02-18T04:18:31;9.40;1.00
5136;DHT22;2586;48.710;9.202;2023-02-18T04:20:57;9.40;1.00
5136;DHT22;2586;48.710;9.202;2023-02-18T04:23:23;9.40;1.00
5136;DHT22;2586;48.710;9.202;2023-02-18T04:25:48;9.40;1.00
5136;DHT22;2586;48.710;9.202;2023-02-18T04:28:14;9.30;1.00
5136;DHT22;2586;48.710;9.202;2023-02-18T04:30:45;9.30;1.00
5136;DHT22;2586;48.710;9.202;2023-02-18T04:33:11;9.30;1.00
5136;DHT22;2586;48.710;9.202;2023-02-18T04:35:36;9.30;99.90
5136;DHT22;2586;48.710;9.202;2023-02-18T04:38:04;9.30;1.00
5136;DHT22;2586;48.710;9.202;2023-02-18T04:40:30;9.30;99.90
5136;DHT22;2586;48.710;9.202;2023-02-18T04:42:57;9.30;99.90
5136;DHT22;2586;48.710;9.202;2023-02-18T04:45:23;9.30;99.90
5136;DHT22;2586;48.710;9.202;2023-02-18T04:47:49;9.30;99.90
5136;DHT22;2586;48.710;9.202;2023-02-18T04:50:14;9.30;99.90
5136;DHT22;2586;48.710;9.202;2023-02-18T04:52:40;9.30;99.90
5136;DHT22;2586;48.710;9.202;2023-02-18T04:55:06;9.30;1.00
5136;DHT22;2586;48.710;9.202;2023-02-18T04:57:32;9.20;1.00
5136;DHT22;2586;48.710;9.202;2023-02-18T04:59:57;9.20;1.00
5136;DHT22;2586;48.710;9.202;2023-02-18T05:02:23;9.30;1.00
5136;DHT22;2586;48.710;9.202;2023-02-18T05:04:49;9.20;1.00
5136;DHT22;2586;48.710;9.202;2023-02-18T05:07:14;9.20;84.50
5136;DHT22;2586;48.710;9.202;2023-02-18T05:09:40;9.30;99.90
5136;DHT22;2586;48.710;9.202;2023-02-18T05:12:06;9.30;36.90
5136;DHT22;2586;48.710;9.202;2023-02-18T05:14:31;9.20;99.90
5136;DHT22;2586;48.710;9.202;2023-02-18T05:16:57;9.30;34.70
5136;DHT22;2586;48.710;9.202;2023-02-18T05:19:22;9.30;46.80
5136;DHT22;2586;48.710;9.202;2023-02-18T05:21:48;9.30;99.90
5136;DHT22;2586;48.710;9.202;2023-02-18T05:24:14;9.30;99.90
5136;DHT22;2586;48.710;9.202;2023-02-18T05:26:39;9.30;99.90
5136;DHT22;2586;48.710;9.202;2023-02-18T05:29:05;9.30;99.90
5136;DHT22;2586;48.710;9.202;2023-02-18T05:31:31;9.40;90.20
5136;DHT22;2586;48.710;9.202;2023-02-18T05:33:56;9.40;19.00
5136;DHT22;2586;48.710;9.202;2023-02-18T05:36:22;9.40;1.00
5136;DHT22;2586;48.710;9.202;2023-02-18T05:38:47;9.50;1.00
5136;DHT22;2586;48.710;9.202;2023-02-18T05:41:13;9.50;1.00
5136;DHT22;2586;48.710;9.202;2023-02-18T05:43:38;9.50;1.00
5136;DHT22;2586;48.710;9.202;2023-02-18T05:46:23;9.50;1.00
5136;DHT22;2586;48.710;9.202;2023-02-18T05:48:48;9.50;1.00
5136;DHT22;2586;48.710;9.202;2023-02-18T05:51:14;9.50;1.00
5136;DHT22;2586;48.710;9.202;2023-02-18T05:53:40;9.50;1.00
5136;DHT22;2586;48.710;9.202;2023-02-18T05:56:06;9.50;1.00
5136;DHT22;2586;48.710;9.202;2023-02-18T05:58:32;9.50;1.00
5136;DHT22;2586;48.710;9.202;2023-02-18T06:00:58;9.50;1.00
5136;DHT22;2586;48.710;9.202;2023-02-18T06:03:23;9.50;1.00
5136;DHT22;2586;48.710;9.202;2023-02-18T06:05:49;9.50;99.90
5136;DHT22;2586;48.710;9.202;2023-02-18T06:08:15;9.50;52.50
5136;DHT22;2586;48.710;9.202;2023-02-18T06:10:40;9.50;58.30
5136;DHT22;2586;48.710;9.202;2023-02-18T06:13:06;9.50;1.00
5136;DHT22;2586;48.710;9.202;2023-02-18T06:15:32;9.50;99.90
5136;DHT22;2586;48.710;9.202;2023-02-18T06:17:57;9.50;94.60
5136;DHT22;2586;48.710;9.202;2023-02-18T06:20:23;9.40;99.20
5136;DHT22;2586;48.710;9.202;2023-02-18T06:22:48;9.40;99.90
5136;DHT22;2586;48.710;9.202;2023-02-18T06:25:14;9.40;99.90
5136;DHT22;2586;48.710;9.202;2023-02-18T06:27:39;9.40;99.90
5136;DHT22;2586;48.710;9.202;2023-02-18T06:30:05;9.40;99.90
5136;DHT22;2586;48.710;9.202;2023-02-18T06:32:31;9.50;99.90
5136;DHT22;2586;48.710;9.202;2023-02-18T06:34:57;9.50;99.30
5136;DHT22;2586;48.710;9.202;2023-02-18T06:37:22;9.50;99.90
5136;DHT22;2586;48.710;9.202;2023-02-18T06:39:48;9.50;99.90
5136;DHT22;2586;48.710;9.202;2023-02-18T06:42:13;9.50;1.00
5136;DHT22;2586;48.710;9.202;2023-02-18T06:44:39;9.60;1.00
5136;DHT22;2586;48.710;9.202;2023-02-18T06:47:04;9.80;99.90
5136;DHT22;2586;48.710;9.202;2023-02-18T06:49:30;9.90;98.10
5136;DHT22;2586;48.710;9.202;2023-02-18T06:51:56;10.00;1.00
5136;DHT22;2586;48.710;9.202;2023-02-18T06:54:21;9.90;1.00
5136;DHT22;2586;48.710;9.202;2023-02-18T06:56:47;10.00;99.90
5136;DHT22;2586;48.710;9.202;2023-02-18T06:59:12;10.00;1.00
5136;DHT22;2586;48.710;9.202;2023-02-18T07:01:38;10.10;99.90
5136;DHT22;2586;48.710;9.202;2023-02-18T07:04:04;10.20;99.90
5136;DHT22;2586;48.710;9.202;2023-02-18T07:06:29;10.10;99.90
5136;DHT22;2586;48.710;9.202;2023-02-18T07:08:55;10.10;99.90
5136;DHT22;2586;48.710;9.202;2023-02-18T07:11:20;10.10;99.90
5136;DHT22;2586;48.710;9.202;2023-02-18T07:13:46;10.10;99.90
5136;DHT22;2586;48.710;9.202;2023-02-18T07:16:12;10.20;99.90
5136;DHT22;2586;48.710;9.202;2023-02-18T07:18:37;10.20;99.90
5136;DHT22;2586;48.710;9.202;2023-02-18T07:21:03;10.20;99.90
5136;DHT22;2586;48.710;9.202;2023-02-18T07:23:28;10.20;99.90
5136;DHT22;2586;48.710;9.202;2023-02-18T07:26:06;10.30;99.90
5136;DHT22;2586;48.710;9.202;2023-02-18T07:28:32;10.30;99.90
5136;DHT22;2586;48.710;9.202;2023-02-18T07:30:57;10.30;99.90
5136;DHT22;2586;48.710;9.202;2023-02-18T07:33:23;10.30;99.90
5136;DHT22;2586;48.710;9.202;2023-02-18T07:35:56;10.30;99.90
5136;DHT22;2586;48.710;9.202;2023-02-18T07:38:23;10.40;45.80
5136;DHT22;2586;48.710;9.202;2023-02-18T07:40:49;10.50;1.00
5136;DHT22;2586;48.710;9.202;2023-02-18T07:43:15;10.50;1.00
5136;DHT22;2586;48.710;9.202;2023-02-18T07:45:41;10.70;1.00
5136;DHT22;2586;48.710;9.202;2023-02-18T07:48:07;10.70;99.90
5136;DHT22;2586;48.710;9.202;2023-02-18T07:50:33;10.70;99.90
5136;DHT22;2586;48.710;9.202;2023-02-18T07:53:02;10.80;99.90
5136;DHT22;2586;48.710;9.202;2023-02-18T07:55:28;10.80;99.90
5136;DHT22;2586;48.710;9.202;2023-02-18T07:58:12;10.90;99.90
5136;DHT22;2586;48.710;9.202;2023-02-18T08:00:38;11.00;79.60
5136;DHT22;2586;48.710;9.202;2023-02-18T08:03:03;11.00;44.10
5136;DHT22;2586;48.710;9.202;2023-02-18T08:05:30;11.10;1.00
5136;DHT22;2586;48.710;9.202;2023-02-18T08:07:55;11.10;1.00
5136;DHT22;2586;48.710;9.202;2023-02-18T08:10:21;11.20;1.00
5136;DHT22;2586;48.710;9.202;2023-02-18T08:12:46;11.30;1.00
5136;DHT22;2586;48.710;9.202;2023-02-18T08:15:12;11.30;1.00
5136;DHT22;2586;48.710;9.202;2023-02-18T08:17:38;11.30;1.00
5136;DHT22;2586;48.710;9.202;2023-02-18T08:20:04;11.40;1.00
5136;DHT22;2586;48.710;9.202;2023-02-18T08:22:29;11.40;1.00
5136;DHT22;2586;48.710;9.202;2023-02-18T08:24:55;11.30;1.00
5136;DHT22;2586;48.710;9.202;2023-02-18T08:27:21;11.30;1.00
5136;DHT22;2586;48.710;9.202;2023-02-18T08:29:47;11.40;99.90
5136;DHT22;2586;48.710;9.202;2023-02-18T08:32:13;11.40;99.90
5136;DHT22;2586;48.710;9.202;2023-02-18T08:34:38;11.50;99.90
5136;DHT22;2586;48.710;9.202;2023-02-18T08:37:04;11.60;99.90
5136;DHT22;2586;48.710;9.202;2023-02-18T08:39:37;11.60;99.90
5136;DHT22;2586;48.710;9.202;2023-02-18T08:42:03;11.60;99.90
5136;DHT22;2586;48.710;9.202;2023-02-18T08:44:28;11.70;99.90
5136;DHT22;2586;48.710;9.202;2023-02-18T08:46:54;11.70;99.90
5136;DHT22;2586;48.710;9.202;2023-02-18T08:49:20;11.70;99.90
5136;DHT22;2586;48.710;9.202;2023-02-18T08:51:49;11.80;99.90
5136;DHT22;2586;48.710;9.202;2023-02-18T08:54:15;11.80;99.90
5136;DHT22;2586;48.710;9.202;2023-02-18T08:56:41;11.90;37.20
5136;DHT22;2586;48.710;9.202;2023-02-18T08:59:06;11.80;70.00
5136;DHT22;2586;48.710;9.202;2023-02-18T09:01:32;11.90;95.60
5136;DHT22;2586;48.710;9.202;2023-02-18T09:03:57;11.90;61.70
5136;DHT22;2586;48.710;9.202;2023-02-18T09:06:23;11.90;1.00
5136;DHT22;2586;48.710;9.202;2023-02-18T09:08:49;11.90;1.00
5136;DHT22;2586;48.710;9.202;2023-02-18T09:11:15;11.90;1.00
5136;DHT22;2586;48.710;9.202;2023-02-18T09:13:41;12.00;1.00
5136;DHT22;2586;48.710;9.202;2023-02-18T09:16:12;12.10;1.00
5136;DHT22;2586;48.710;9.202;2023-02-18T09:18:38;12.20;1.00
5136;DHT22;2586;48.710;9.202;2023-02-18T09:21:06;12.30;1.00
5136;DHT22;2586;48.710;9.202;2023-02-18T09:23:32;12.30;1.00
5136;DHT22;2586;48.710;9.202;2023-02-18T09:25:58;12.30;1.00
5136;DHT22;2586;48.710;9.202;2023-02-18T09:28:24;12.30;1.00
5136;DHT22;2586;48.710;9.202;2023-02-18T09:30:50;12.40;1.00
5136;DHT22;2586;48.710;9.202;2023-02-18T09:33:16;12.40;1.00
5136;DHT22;2586;48.710;9.202;2023-02-18T09:35:42;12.40;1.00
5136;DHT22;2586;48.710;9.202;2023-02-18T09:38:09;12.50;1.00
5136;DHT22;2586;48.710;9.202;2023-02-18T09:40:39;12.60;1.00
5136;DHT22;2586;48.710;9.202;2023-02-18T09:43:06;12.60;1.00
5136;DHT22;2586;48.710;9.202;2023-02-18T09:45:34;12.60;1.00
5136;DHT22;2586;48.710;9.202;2023-02-18T09:48:01;12.70;1.00
5136;DHT22;2586;48.710;9.202;2023-02-18T09:50:30;12.80;1.00
5136;DHT22;2586;48.710;9.202;2023-02-18T09:53:00;12.70;1.00
5136;DHT22;2586;48.710;9.202;2023-02-18T09:55:36;12.70;1.00
5136;DHT22;2586;48.710;9.202;2023-02-18T09:58:11;12.70;1.00
5136;DHT22;2586;48.710;9.202;2023-02-18T10:00:43;12.70;1.00
5136;DHT22;2586;48.710;9.202;2023-02-18T10:03:20;12.80;1.00
5136;DHT22;2586;48.710;9.202;2023-02-18T10:06:03;12.80;1.00
5136;DHT22;2586;48.710;9.202;2023-02-18T10:08:42;12.70;1.00
5136;DHT22;2586;48.710;9.202;2023-02-18T10:11:15;12.70;1.00
5136;DHT22;2586;48.710;9.202;2023-02-18T10:13:42;12.70;1.00
5136;DHT22;2586;48.710;9.202;2023-02-18T10:16:08;12.70;1.00
5136;DHT22;2586;48.710;9.202;2023-02-18T10:18:41;12.70;1.00
5136;DHT22;2586;48.710;9.202;2023-02-18T10:21:15;12.70;1.00
5136;DHT22;2586;48.710;9.202;2023-02-18T10:23:57;12.70;99.90
5136;DHT22;2586;48.710;9.202;2023-02-18T10:26:24;12.70;99.90
5136;DHT22;2586;48.710;9.202;2023-02-18T10:28:49;12.60;99.90
5136;DHT22;2586;48.710;9.202;2023-02-18T10:31:30;12.70;99.90
5136;DHT22;2586;48.710;9.202;2023-02-18T10:36:48;12.70;99.90
5136;DHT22;2586;48.710;9.202;2023-02-18T10:47:13;12.90;99.90
5136;DHT22;2586;48.710;9.202;2023-02-18T10:50:01;13.00;99.90
5136;DHT22;2586;48.710;9.202;2023-02-18T10:52:33;13.00;99.90
5136;DHT22;2586;48.710;9.202;2023-02-18T10:57:27;12.90;99.90
5136;DHT22;2586;48.710;9.202;2023-02-18T11:02:29;12.90;99.90
5136;DHT22;2586;48.710;9.202;2023-02-18T11:04:59;12.90;99.90
5136;DHT22;2586;48.710;9.202;2023-02-18T11:07:30;12.90;99.90
5136;DHT22;2586;48.710;9.202;2023-02-18T11:10:13;13.00;99.90
5136;DHT22;2586;48.710;9.202;2023-02-18T11:12:59;13.00;99.90
5136;DHT22;2586;48.710;9.202;2023-02-18T11:15:26;13.00;99.90
5136;DHT22;2586;48.710;9.202;2023-02-18T11:17:54;13.00;99.90
5136;DHT22;2586;48.710;9.202;2023-02-18T11:20:30;13.00;99.90
5136;DHT22;2586;48.710;9.202;2023-02-18T11:23:18;13.10;99.90
5136;DHT22;2586;48.710;9.202;2023-02-18T11:26:02;13.00;99.90
5136;DHT22;2586;48.710;9.202;2023-02-18T11:28:47;13.10;99.90
5136;DHT22;2586;48.710;9.202;2023-02-18T11:31:24;13.20;99.90
5136;DHT22;2586;48.710;9.202;2023-02-18T11:33:54;13.20;99.90
5136;DHT22;2586;48.710;9.202;2023-02-18T11:36:28;13.40;99.90
5136;DHT22;2586;48.710;9.202;2023-02-18T11:38:56;13.50;99.90
5136;DHT22;2586;48.710;9.202;2023-02-18T11:41:40;13.50;99.90
5136;DHT22;2586;48.710;9.202;2023-02-18T11:44:34;13.40;99.90
5136;DHT22;2586;48.710;9.202;2023-02-18T11:47:22;13.50;99.90
5136;DHT22;2586;48.710;9.202;2023-02-18T11:52:37;13.50;99.90
5136;DHT22;2586;48.710;9.202;2023-02-18T11:57:45;13.60;99.90
5136;DHT22;2586;48.710;9.202;2023-02-18T12:03:02;13.70;99.90
5136;DHT22;2586;48.710;9.202;2023-02-18T12:05:31;13.70;99.90
5136;DHT22;2586;48.710;9.202;2023-02-18T12:08:23;13.70;99.90
5136;DHT22;2586;48.710;9.202;2023-02-18T12:10:55;13.70;99.90
5136;DHT22;2586;48.710;9.202;2023-02-18T12:13:26;13.80;99.90
5136;DHT22;2586;48.710;9.202;2023-02-18T12:32:43;13.70;99.90
5136;DHT22;2586;48.710;9.202;2023-02-18T12:46:35;14.00;99.90
5136;DHT22;2586;48.710;9.202;2023-02-18T12:49:29;13.90;99.90
5136;DHT22;2586;48.710;9.202;2023-02-18T12:57:17;13.90;99.90
5136;DHT22;2586;48.710;9.202;2023-02-18T13:05:56;13.90;99.90
5136;DHT22;2586;48.710;9.202;2023-02-18T13:11:19;13.80;99.90
5136;DHT22;2586;48.710;9.202;2023-02-18T13:14:17;13.90;99.90
5136;DHT22;2586;48.710;9.202;2023-02-18T13:16:47;13.90;99.90
5136;DHT22;2586;48.710;9.202;2023-02-18T13:19:25;13.90;99.90
5136;DHT22;2586;48.710;9.202;2023-02-18T13:22:05;13.90;99.90
5136;DHT22;2586;48.710;9.202;2023-02-18T13:24:38;14.00;99.20
5136;DHT22;2586;48.710;9.202;2023-02-18T13:33:26;13.90;99.00
5136;DHT22;2586;48.710;9.202;2023-02-18T13:41:21;14.00;94.80
5136;DHT22;2586;48.710;9.202;2023-02-18T13:43:47;14.00;95.50
5136;DHT22;2586;48.710;9.202;2023-02-18T13:46:19;14.00;98.00
5136;DHT22;2586;48.710;9.202;2023-02-18T13:49:02;14.10;96.30
5136;DHT22;2586;48.710;9.202;2023-02-18T13:51:32;14.30;94.40
5136;DHT22;2586;48.710;9.202;2023-02-18T13:54:28;14.50;93.50
5136;DHT22;2586;48.710;9.202;2023-02-18T13:57:06;14.50;91.60
5136;DHT22;2586;48.710;9.202;2023-02-18T13:59:39;14.30;88.20
5136;DHT22;2586;48.710;9.202;2023-02-18T14:10:05;14.80;90.40
5136;DHT22;2586;48.710;9.202;2023-02-18T14:12:41;14.60;83.10
5136;DHT22;2586;48.710;9.202;2023-02-18T14:31:05;15.20;38.20
5136;DHT22;2586;48.710;9.202;2023-02-18T14:33:33;15.40;47.50
5136;DHT22;2586;48.710;9.202;2023-02-18T14:36:15;15.60;39.70
5136;DHT22;2586;48.710;9.202;2023-02-18T14:49:55;15.70;30.20
5136;DHT22;2586;48.710;9.202;2023-02-18T14:52:34;15.10;35.50
5136;DHT22;2586;48.710;9.202;2023-02-18T14:55:04;14.80;30.00
5136;DHT22;2586;48.710;9.202;2023-02-18T14:57:40;14.60;34.00
5136;DHT22;2586;48.710;9.202;2023-02-18T15:00:18;14.60;41.80
5136;DHT22;2586;48.710;9.202;2023-02-18T15:02:55;14.40;42.50
5136;DHT22;2586;48.710;9.202;2023-02-18T15:05:26;14.30;43.90
5136;DHT22;2586;48.710;9.202;2023-02-18T15:08:14;14.40;45.20
5136;DHT22;2586;48.710;9.202;2023-02-18T15:11:03;14.30;41.80
5136;DHT22;2586;48.710;9.202;2023-02-18T15:13:40;14.20;40.90
5136;DHT22;2586;48.710;9.202;2023-02-18T15:16:13;14.70;43.20
5136;DHT22;2586;48.710;9.202;2023-02-18T15:18:43;14.80;42.40
5136;DHT22;2586;48.710;9.202;2023-02-18T15:21:20;14.80;39.50
5136;DHT22;2586;48.710;9.202;2023-02-18T15:23:48;14.70;41.20
5136;DHT22;2586;48.710;9.202;2023-02-18T15:26:14;14.80;42.50
5136;DHT22;2586;48.710;9.202;2023-02-18T15:29:03;14.80;41.40
5136;DHT22;2586;48.710;9.202;2023-02-18T15:31:35;14.70;40.40
5136;DHT22;2586;48.710;9.202;2023-02-18T15:34:01;14.40;41.80
5136;DHT22;2586;48.710;9.202;2023-02-18T15:36:26;14.20;43.20
5136;DHT22;2586;48.710;9.202;2023-02-18T15:38:52;14.20;46.20
5136;DHT22;2586;48.710;9.202;2023-02-18T15:41:20;14.20;47.80
5136;DHT22;2586;48.710;9.202;2023-02-18T15:44:02;14.10;46.90
5136;DHT22;2586;48.710;9.202;2023-02-18T15:46:29;14.00;48.80
5136;DHT22;2586;48.710;9.202;2023-02-18T15:48:56;13.70;51.20
5136;DHT22;2586;48.710;9.202;2023-02-18T15:51:27;13.60;55.40
5136;DHT22;2586;48.710;9.202;2023-02-18T15:53:56;13.60;58.80
5136;DHT22;2586;48.710;9.202;2023-02-18T15:56:34;13.50;60.50
5136;DHT22;2586;48.710;9.202;2023-02-18T15:59:28;13.50;63.90
5136;DHT22;2586;48.710;9.202;2023-02-18T16:04:36;13.40;71.30
5136;DHT22;2586;48.710;9.202;2023-02-18T16:07:18;13.40;75.70
5136;DHT22;2586;48.710;9.202;2023-02-18T16:09:45;13.20;78.50
5136;DHT22;2586;48.710;9.202;2023-02-18T16:12:24;13.20;84.30
5136;DHT22;2586;48.710;9.202;2023-02-18T16:14:53;13.20;91.70
5136;DHT22;2586;48.710;9.202;2023-02-18T16:17:21;13.10;92.60
5136;DHT22;2586;48.710;9.202;2023-02-18T16:19:55;13.00;93.10
5136;DHT22;2586;48.710;9.202;2023-02-18T16:25:09;12.90;98.70
5136;DHT22;2586;48.710;9.202;2023-02-18T16:27:51;12.80;99.90
5136;DHT22;2586;48.710;9.202;2023-02-18T16:30:26;12.80;99.90
5136;DHT22;2586;48.710;9.202;2023-02-18T16:32:53;12.70;99.90
5136;DHT22;2586;48.710;9.202;2023-02-18T16:35:21;12.70;99.90
5136;DHT22;2586;48.710;9.202;2023-02-18T16:37:47;12.70;99.90
5136;DHT22;2586;48.710;9.202;2023-02-18T16:40:34;12.60;99.90
5136;DHT22;2586;48.710;9.202;2023-02-18T16:43:18;12.60;99.90
5136;DHT22;2586;48.710;9.202;2023-02-18T16:45:55;12.60;99.90
5136;DHT22;2586;48.710;9.202;2023-02-18T16:48:40;12.50;99.90
5136;DHT22;2586;48.710;9.202;2023-02-18T16:51:15;12.50;99.90
5136;DHT22;2586;48.710;9.202;2023-02-18T16:53:42;12.50;99.90
5136;DHT22;2586;48.710;9.202;2023-02-18T16:56:17;12.40;99.90
5136;DHT22;2586;48.710;9.202;2023-02-18T16:58:42;12.40;99.90
5136;DHT22;2586;48.710;9.202;2023-02-18T17:01:25;12.40;99.90
5136;DHT22;2586;48.710;9.202;2023-02-18T17:03:52;12.40;99.90
5136;DHT22;2586;48.710;9.202;2023-02-18T17:06:18;12.40;99.90
5136;DHT22;2586;48.710;9.202;2023-02-18T17:08:43;12.40;99.90
5136;DHT22;2586;48.710;9.202;2023-02-18T17:11:25;12.40;99.90
5136;DHT22;2586;48.710;9.202;2023-02-18T17:13:53;12.30;99.90
5136;DHT22;2586;48.710;9.202;2023-02-18T17:16:20;12.30;99.90
5136;DHT22;2586;48.710;9.202;2023-02-18T17:18:46;12.30;99.90
5136;DHT22;2586;48.710;9.202;2023-02-18T17:21:17;12.30;99.90
5136;DHT22;2586;48.710;9.202;2023-02-18T17:23:43;12.40;99.90
5136;DHT22;2586;48.710;9.202;2023-02-18T17:26:28;12.30;99.90
5136;DHT22;2586;48.710;9.202;2023-02-18T17:28:56;12.30;99.90
5136;DHT22;2586;48.710;9.202;2023-02-18T17:31:28;12.30;99.90
5136;DHT22;2586;48.710;9.202;2023-02-18T17:33:56;12.30;99.90
5136;DHT22;2586;48.710;9.202;2023-02-18T17:36:23;12.30;99.90
5136;DHT22;2586;48.710;9.202;2023-02-18T17:38:48;12.30;99.90
5136;DHT22;2586;48.710;9.202;2023-02-18T17:41:15;12.20;99.90
5136;DHT22;2586;48.710;9.202;2023-02-18T17:43:41;12.20;99.90
5136;DHT22;2586;48.710;9.202;2023-02-18T17:46:15;12.30;99.90
5136;DHT22;2586;48.710;9.202;2023-02-18T17:48:41;12.20;99.90
5136;DHT22;2586;48.710;9.202;2023-02-18T17:51:24;12.30;99.90
5136;DHT22;2586;48.710;9.202;2023-02-18T17:53:50;12.30;99.90
5136;DHT22;2586;48.710;9.202;2023-02-18T17:56:16;12.30;99.90
5136;DHT22;2586;48.710;9.202;2023-02-18T17:58:41;12.30;99.90
5136;DHT22;2586;48.710;9.202;2023-02-18T18:01:08;12.30;99.90
5136;DHT22;2586;48.710;9.202;2023-02-18T18:03:34;12.20;99.90
5136;DHT22;2586;48.710;9.202;2023-02-18T18:06:00;12.20;99.90
5136;DHT22;2586;48.710;9.202;2023-02-18T18:08:28;12.20;99.90
5136;DHT22;2586;48.710;9.202;2023-02-18T18:10:57;12.20;99.90
5136;DHT22;2586;48.710;9.202;2023-02-18T18:13:26;12.10;99.90
5136;DHT22;2586;48.710;9.202;2023-02-18T18:15:52;12.10;99.90
5136;DHT22;2586;48.710;9.202;2023-02-18T18:18:18;12.10;99.90
5136;DHT22;2586;48.710;9.202;2023-02-18T18:20:50;12.00;99.90
5136;DHT22;2586;48.710;9.202;2023-02-18T18:23:17;12.10;99.90
5136;DHT22;2586;48.710;9.202;2023-02-18T18:25:49;12.10;99.90
5136;DHT22;2586;48.710;9.202;2023-02-18T18:28:15;12.10;99.90
5136;DHT22;2586;48.710;9.202;2023-02-18T18:30:43;12.00;99.90
5136;DHT22;2586;48.710;9.202;2023-02-18T18:33:19;12.00;99.90
5136;DHT22;2586;48.710;9.202;2023-02-18T18:35:48;11.90;1.00
5136;DHT22;2586;48.710;9.202;2023-02-18T18:38:15;11.90;1.00
5136;DHT22;2586;48.710;9.202;2023-02-18T18:40:41;11.90;1.00
5136;DHT22;2586;48.710;9.202;2023-02-18T18:43:23;11.90;1.00
5136;DHT22;2586;48.710;9.202;2023-02-18T18:45:50;11.90;1.00
5136;DHT22;2586;48.710;9.202;2023-02-18T18:48:16;11.90;1.00
5136;DHT22;2586;48.710;9.202;2023-02-18T18:50:42;11.90;1.00
5136;DHT22;2586;48.710;9.202;2023-02-18T18:53:29;11.90;1.00
5136;DHT22;2586;48.710;9.202;2023-02-18T18:56:01;11.90;1.00
5136;DHT22;2586;48.710;9.202;2023-02-18T18:58:27;11.90;1.00
5136;DHT22;2586;48.710;9.202;2023-02-18T19:00:56;11.90;1.00
5136;DHT22;2586;48.710;9.202;2023-02-18T19:03:23;11.90;1.00
5136;DHT22;2586;48.710;9.202;2023-02-18T19:05:49;11.90;1.00